sensor_id;sensor_type;location;lat;lon;timestamp;P1;durP1;ratioP1;P2;durP2;ratioP2
76631;SDS011;65526;48.578;-4.520;2023-06-01T00:01:38;23.67;;;7.70;;
76631;SDS011;65526;48.578;-4.520;2023-06-01T00:04:05;21.05;;;7.15;;
76631;SDS011;65526;48.578;-4.520;2023-06-01T00:06:33;20.52;;;7.47;;
76631;SDS011;65526;48.578;-4.520;2023-06-01T00:09:00;22.75;;;7.57;;
76631;SDS011;65526;48.578;-4.520;2023-06-01T00:11:28;21.02;;;6.50;;
76631;SDS011;65526;48.578;-4.520;2023-06-01T00:13:54;23.85;;;6.82;;
76631;SDS011;65526;48.578;-4.520;2023-06-01T00:16:21;25.38;;;6.90;;
76631;SDS011;65526;48.578;-4.520;2023-06-01T00:18:48;20.90;;;6.80;;
76631;SDS011;65526;48.578;-4.520;2023-06-01T00:21:17;22.58;;;7.25;;
76631;SDS011;65526;48.578;-4.520;2023-06-01T00:23:44;24.23;;;7.07;;
76631;SDS011;65526;48.578;-4.520;2023-06-01T00:26:10;23.00;;;7.63;;
76631;SDS011;65526;48.578;-4.520;2023-06-01T00:28:38;23.60;;;7.78;;
76631;SDS011;65526;48.578;-4.520;2023-06-01T00:31:04;27.08;;;8.48;;
76631;SDS011;65526;48.578;-4.520;2023-06-01T00:33:31;30.88;;;10.35;;
76631;SDS011;65526;48.578;-4.520;2023-06-01T00:35:57;26.77;;;9.02;;
76631;SDS011;65526;48.578;-4.520;2023-06-01T00:38:24;26.05;;;9.35;;
76631;SDS011;65526;48.578;-4.520;2023-06-01T00:40:50;30.48;;;9.40;;
76631;SDS011;65526;48.578;-4.520;2023-06-01T00:43:17;31.30;;;9.57;;
76631;SDS011;65526;48.578;-4.520;2023-06-01T00:45:44;30.58;;;10.40;;
76631;SDS011;65526;48.578;-4.520;2023-06-01T00:48:11;27.42;;;9.73;;
76631;SDS011;65526;48.578;-4.520;2023-06-01T00:50:38;23.50;;;10.40;;
76631;SDS011;65526;48.578;-4.520;2023-06-01T00:53:08;26.10;;;9.77;;
76631;SDS011;65526;48.578;-4.520;2023-06-01T00:55:40;23.70;;;10.73;;
76631;SDS011;65526;48.578;-4.520;2023-06-01T00:58:07;31.08;;;10.15;;
76631;SDS011;65526;48.578;-4.520;2023-06-01T01:00:34;30.58;;;12.13;;
76631;SDS011;65526;48.578;-4.520;2023-06-01T01:03:04;28.05;;;10.57;;
76631;SDS011;65526;48.578;-4.520;2023-06-01T01:05:38;25.67;;;10.18;;
76631;SDS011;65526;48.578;-4.520;2023-06-01T01:11:07;33.03;;;10.85;;
76631;SDS011;65526;48.578;-4.520;2023-06-01T01:13:56;31.38;;;10.68;;
76631;SDS011;65526;48.578;-4.520;2023-06-01T01:25:20;26.00;;;10.75;;
76631;SDS011;65526;48.578;-4.520;2023-06-01T01:31:02;28.52;;;9.48;;
76631;SDS011;65526;48.578;-4.520;2023-06-01T01:33:31;27.65;;;10.23;;
76631;SDS011;65526;48.578;-4.520;2023-06-01T01:35:58;29.10;;;9.73;;
76631;SDS011;65526;48.578;-4.520;2023-06-01T01:38:26;27.58;;;10.70;;
76631;SDS011;65526;48.578;-4.520;2023-06-01T01:40:53;31.27;;;10.15;;
76631;SDS011;65526;48.578;-4.520;2023-06-01T01:43:20;30.77;;;10.45;;
76631;SDS011;65526;48.578;-4.520;2023-06-01T01:45:49;33.92;;;11.15;;
76631;SDS011;65526;48.578;-4.520;2023-06-01T01:48:26;24.20;;;9.95;;
76631;SDS011;65526;48.578;-4.520;2023-06-01T01:51:19;26.05;;;10.23;;
76631;SDS011;65526;48.578;-4.520;2023-06-01T01:53:52;36.92;;;11.30;;
76631;SDS011;65526;48.578;-4.520;2023-06-01T01:56:22;28.15;;;10.38;;
76631;SDS011;65526;48.578;-4.520;2023-06-01T01:58:49;33.03;;;10.50;;
76631;SDS011;65526;48.578;-4.520;2023-06-01T02:01:16;26.95;;;10.48;;
76631;SDS011;65526;48.578;-4.520;2023-06-01T02:03:43;27.55;;;9.55;;
76631;SDS011;65526;48.578;-4.520;2023-06-01T02:06:09;28.85;;;11.18;;
76631;SDS011;65526;48.578;-4.520;2023-06-01T02:08:36;33.03;;;10.52;;
76631;SDS011;65526;48.578;-4.520;2023-06-01T02:11:02;40.22;;;11.95;;
76631;SDS011;65526;48.578;-4.520;2023-06-01T02:13:29;28.60;;;10.90;;
76631;SDS011;65526;48.578;-4.520;2023-06-01T02:15:56;31.98;;;11.27;;
76631;SDS011;65526;48.578;-4.520;2023-06-01T02:18:22;28.95;;;9.95;;
76631;SDS011;65526;48.578;-4.520;2023-06-01T02:20:51;32.20;;;11.00;;
76631;SDS011;65526;48.578;-4.520;2023-06-01T02:23:17;24.80;;;10.38;;
76631;SDS011;65526;48.578;-4.520;2023-06-01T02:25:44;27.92;;;10.85;;
76631;SDS011;65526;48.578;-4.520;2023-06-01T02:28:10;37.00;;;11.85;;
76631;SDS011;65526;48.578;-4.520;2023-06-01T02:30:37;28.73;;;11.25;;
76631;SDS011;65526;48.578;-4.520;2023-06-01T02:33:03;34.60;;;11.20;;
76631;SDS011;65526;48.578;-4.520;2023-06-01T02:35:30;30.60;;;10.20;;
76631;SDS011;65526;48.578;-4.520;2023-06-01T02:37:56;30.88;;;11.45;;
76631;SDS011;65526;48.578;-4.520;2023-06-01T02:40:23;34.22;;;12.02;;
76631;SDS011;65526;48.578;-4.520;2023-06-01T02:42:49;32.63;;;11.80;;
76631;SDS011;65526;48.578;-4.520;2023-06-01T02:45:16;41.20;;;10.50;;
76631;SDS011;65526;48.578;-4.520;2023-06-01T02:47:43;30.33;;;10.55;;
76631;SDS011;65526;48.578;-4.520;2023-06-01T02:50:11;32.35;;;11.93;;
76631;SDS011;65526;48.578;-4.520;2023-06-01T02:52:41;30.33;;;10.25;;
76631;SDS011;65526;48.578;-4.520;2023-06-01T02:55:08;28.33;;;11.07;;
76631;SDS011;65526;48.578;-4.520;2023-06-01T02:57:53;27.40;;;10.82;;
76631;SDS011;65526;48.578;-4.520;2023-06-01T03:00:20;38.88;;;12.48;;
76631;SDS011;65526;48.578;-4.520;2023-06-01T03:02:48;32.70;;;11.75;;
76631;SDS011;65526;48.578;-4.520;2023-06-01T03:05:14;30.52;;;11.35;;
76631;SDS011;65526;48.578;-4.520;2023-06-01T03:07:45;31.17;;;12.07;;
76631;SDS011;65526;48.578;-4.520;2023-06-01T03:10:19;25.02;;;11.88;;
76631;SDS011;65526;48.578;-4.520;2023-06-01T03:13:01;30.17;;;11.95;;
76631;SDS011;65526;48.578;-4.520;2023-06-01T03:15:27;33.67;;;12.88;;
76631;SDS011;65526;48.578;-4.520;2023-06-01T03:17:54;31.02;;;11.13;;
76631;SDS011;65526;48.578;-4.520;2023-06-01T03:20:21;28.27;;;11.23;;
76631;SDS011;65526;48.578;-4.520;2023-06-01T03:22:48;28.95;;;11.93;;
76631;SDS011;65526;48.578;-4.520;2023-06-01T03:25:14;34.60;;;11.82;;
76631;SDS011;65526;48.578;-4.520;2023-06-01T03:27:42;38.13;;;12.00;;
76631;SDS011;65526;48.578;-4.520;2023-06-01T03:30:09;35.67;;;12.95;;
76631;SDS011;65526;48.578;-4.520;2023-06-01T03:32:37;31.30;;;11.93;;
76631;SDS011;65526;48.578;-4.520;2023-06-01T03:35:05;35.80;;;13.13;;
76631;SDS011;65526;48.578;-4.520;2023-06-01T03:37:35;34.28;;;12.07;;
76631;SDS011;65526;48.578;-4.520;2023-06-01T03:40:02;40.67;;;13.00;;
76631;SDS011;65526;48.578;-4.520;2023-06-01T03:42:48;36.72;;;12.45;;
76631;SDS011;65526;48.578;-4.520;2023-06-01T03:45:14;33.25;;;12.85;;
76631;SDS011;65526;48.578;-4.520;2023-06-01T03:47:42;38.78;;;13.57;;
76631;SDS011;65526;48.578;-4.520;2023-06-01T03:50:09;39.75;;;13.30;;
76631;SDS011;65526;48.578;-4.520;2023-06-01T03:52:37;41.03;;;12.98;;
76631;SDS011;65526;48.578;-4.520;2023-06-01T03:55:04;35.50;;;12.95;;
76631;SDS011;65526;48.578;-4.520;2023-06-01T03:58:00;39.75;;;13.55;;
76631;SDS011;65526;48.578;-4.520;2023-06-01T04:00:28;40.15;;;13.82;;
76631;SDS011;65526;48.578;-4.520;2023-06-01T04:02:59;43.72;;;14.48;;
76631;SDS011;65526;48.578;-4.520;2023-06-01T04:05:28;48.00;;;14.15;;
76631;SDS011;65526;48.578;-4.520;2023-06-01T04:07:54;47.38;;;14.60;;
76631;SDS011;65526;48.578;-4.520;2023-06-01T04:10:22;47.65;;;15.57;;
76631;SDS011;65526;48.578;-4.520;2023-06-01T04:12:49;42.28;;;15.10;;
76631;SDS011;65526;48.578;-4.520;2023-06-01T04:15:17;49.00;;;15.43;;
76631;SDS011;65526;48.578;-4.520;2023-06-01T04:17:44;44.10;;;13.93;;
76631;SDS011;65526;48.578;-4.520;2023-06-01T04:20:12;45.33;;;15.80;;
76631;SDS011;65526;48.578;-4.520;2023-06-01T04:22:40;37.80;;;14.57;;
76631;SDS011;65526;48.578;-4.520;2023-06-01T04:25:08;47.40;;;15.10;;
76631;SDS011;65526;48.578;-4.520;2023-06-01T04:27:42;42.00;;;14.95;;
76631;SDS011;65526;48.578;-4.520;2023-06-01T04:30:11;32.80;;;13.77;;
76631;SDS011;65526;48.578;-4.520;2023-06-01T04:32:39;47.20;;;15.32;;
76631;SDS011;65526;48.578;-4.520;2023-06-01T04:35:08;42.10;;;13.18;;
76631;SDS011;65526;48.578;-4.520;2023-06-01T04:37:35;36.42;;;13.30;;
76631;SDS011;65526;48.578;-4.520;2023-06-01T04:40:05;34.55;;;13.18;;
76631;SDS011;65526;48.578;-4.520;2023-06-01T04:42:38;36.88;;;13.80;;
76631;SDS011;65526;48.578;-4.520;2023-06-01T04:45:11;38.25;;;13.13;;
76631;SDS011;65526;48.578;-4.520;2023-06-01T04:50:18;30.15;;;12.65;;
76631;SDS011;65526;48.578;-4.520;2023-06-01T04:52:44;32.58;;;14.07;;
76631;SDS011;65526;48.578;-4.520;2023-06-01T04:55:11;38.65;;;12.65;;
76631;SDS011;65526;48.578;-4.520;2023-06-01T04:57:41;36.38;;;14.25;;
76631;SDS011;65526;48.578;-4.520;2023-06-01T05:02:41;38.50;;;13.15;;
76631;SDS011;65526;48.578;-4.520;2023-06-01T05:05:12;33.95;;;12.45;;
76631;SDS011;65526;48.578;-4.520;2023-06-01T05:07:41;40.58;;;14.63;;
76631;SDS011;65526;48.578;-4.520;2023-06-01T05:10:09;43.95;;;14.10;;
76631;SDS011;65526;48.578;-4.520;2023-06-01T05:12:46;36.50;;;14.25;;
76631;SDS011;65526;48.578;-4.520;2023-06-01T05:15:14;40.83;;;14.48;;
76631;SDS011;65526;48.578;-4.520;2023-06-01T05:17:42;35.15;;;12.50;;
76631;SDS011;65526;48.578;-4.520;2023-06-01T05:20:12;39.92;;;12.63;;
76631;SDS011;65526;48.578;-4.520;2023-06-01T05:22:42;35.92;;;14.07;;
76631;SDS011;65526;48.578;-4.520;2023-06-01T05:25:08;35.20;;;12.70;;
76631;SDS011;65526;48.578;-4.520;2023-06-01T05:27:35;35.35;;;13.50;;
76631;SDS011;65526;48.578;-4.520;2023-06-01T05:30:03;39.00;;;13.85;;
76631;SDS011;65526;48.578;-4.520;2023-06-01T05:32:30;38.72;;;12.95;;
76631;SDS011;65526;48.578;-4.520;2023-06-01T05:35:03;37.90;;;13.32;;
76631;SDS011;65526;48.578;-4.520;2023-06-01T05:37:31;46.63;;;14.35;;
76631;SDS011;65526;48.578;-4.520;2023-06-01T05:39:59;37.42;;;14.45;;
76631;SDS011;65526;48.578;-4.520;2023-06-01T05:42:25;37.80;;;13.20;;
76631;SDS011;65526;48.578;-4.520;2023-06-01T05:44:51;34.05;;;14.07;;
76631;SDS011;65526;48.578;-4.520;2023-06-01T05:47:18;37.55;;;13.65;;
76631;SDS011;65526;48.578;-4.520;2023-06-01T05:49:44;40.78;;;14.02;;
76631;SDS011;65526;48.578;-4.520;2023-06-01T05:52:11;32.60;;;13.68;;
76631;SDS011;65526;48.578;-4.520;2023-06-01T05:54:39;41.30;;;13.23;;
76631;SDS011;65526;48.578;-4.520;2023-06-01T05:57:07;40.33;;;14.55;;
76631;SDS011;65526;48.578;-4.520;2023-06-01T05:59:33;35.20;;;13.65;;
76631;SDS011;65526;48.578;-4.520;2023-06-01T06:02:00;43.13;;;14.13;;
76631;SDS011;65526;48.578;-4.520;2023-06-01T06:04:27;36.72;;;13.93;;
76631;SDS011;65526;48.578;-4.520;2023-06-01T06:06:53;36.72;;;13.57;;
76631;SDS011;65526;48.578;-4.520;2023-06-01T06:09:20;35.00;;;13.68;;
76631;SDS011;65526;48.578;-4.520;2023-06-01T06:11:46;45.55;;;13.43;;
76631;SDS011;65526;48.578;-4.520;2023-06-01T06:14:13;40.65;;;14.73;;
76631;SDS011;65526;48.578;-4.520;2023-06-01T06:16:39;39.67;;;13.95;;
76631;SDS011;65526;48.578;-4.520;2023-06-01T06:19:06;35.75;;;13.73;;
76631;SDS011;65526;48.578;-4.520;2023-06-01T06:21:32;34.60;;;12.48;;
76631;SDS011;65526;48.578;-4.520;2023-06-01T06:23:59;28.55;;;12.93;;
76631;SDS011;65526;48.578;-4.520;2023-06-01T06:26:25;36.47;;;13.88;;
76631;SDS011;65526;48.578;-4.520;2023-06-01T06:28:53;32.88;;;12.80;;
76631;SDS011;65526;48.578;-4.520;2023-06-01T06:31:19;32.38;;;12.15;;
76631;SDS011;65526;48.578;-4.520;2023-06-01T06:33:46;30.27;;;12.38;;
76631;SDS011;65526;48.578;-4.520;2023-06-01T06:36:12;35.13;;;13.40;;
76631;SDS011;65526;48.578;-4.520;2023-06-01T06:38:38;32.72;;;13.30;;
76631;SDS011;65526;48.578;-4.520;2023-06-01T06:41:05;31.38;;;12.10;;
76631;SDS011;65526;48.578;-4.520;2023-06-01T06:43:31;33.70;;;12.27;;
76631;SDS011;65526;48.578;-4.520;2023-06-01T06:45:57;32.17;;;12.10;;
76631;SDS011;65526;48.578;-4.520;2023-06-01T06:48:24;36.67;;;12.00;;
76631;SDS011;65526;48.578;-4.520;2023-06-01T06:50:50;33.55;;;13.85;;
76631;SDS011;65526;48.578;-4.520;2023-06-01T06:53:17;28.63;;;12.75;;
76631;SDS011;65526;48.578;-4.520;2023-06-01T06:55:43;29.52;;;11.38;;
76631;SDS011;65526;48.578;-4.520;2023-06-01T06:58:10;33.00;;;13.38;;
76631;SDS011;65526;48.578;-4.520;2023-06-01T07:00:37;33.63;;;13.82;;
76631;SDS011;65526;48.578;-4.520;2023-06-01T07:03:03;32.45;;;12.82;;
76631;SDS011;65526;48.578;-4.520;2023-06-01T07:05:30;31.52;;;12.93;;
76631;SDS011;65526;48.578;-4.520;2023-06-01T07:07:56;33.28;;;13.57;;
76631;SDS011;65526;48.578;-4.520;2023-06-01T07:10:23;38.95;;;13.48;;
76631;SDS011;65526;48.578;-4.520;2023-06-01T07:12:49;32.85;;;13.05;;
76631;SDS011;65526;48.578;-4.520;2023-06-01T07:15:15;37.80;;;14.25;;
76631;SDS011;65526;48.578;-4.520;2023-06-01T07:17:42;37.47;;;13.30;;
76631;SDS011;65526;48.578;-4.520;2023-06-01T07:20:08;31.77;;;13.63;;
76631;SDS011;65526;48.578;-4.520;2023-06-01T07:22:38;43.92;;;14.13;;
76631;SDS011;65526;48.578;-4.520;2023-06-01T07:25:05;33.65;;;12.40;;
76631;SDS011;65526;48.578;-4.520;2023-06-01T07:27:33;40.55;;;13.13;;
76631;SDS011;65526;48.578;-4.520;2023-06-01T07:30:03;33.17;;;13.95;;
76631;SDS011;65526;48.578;-4.520;2023-06-01T07:32:31;32.45;;;13.32;;
76631;SDS011;65526;48.578;-4.520;2023-06-01T07:34:57;33.20;;;12.27;;
76631;SDS011;65526;48.578;-4.520;2023-06-01T07:37:23;31.75;;;13.23;;
76631;SDS011;65526;48.578;-4.520;2023-06-01T07:39:53;33.75;;;13.10;;
76631;SDS011;65526;48.578;-4.520;2023-06-01T07:42:20;37.65;;;12.88;;
76631;SDS011;65526;48.578;-4.520;2023-06-01T07:44:46;28.63;;;12.45;;
76631;SDS011;65526;48.578;-4.520;2023-06-01T07:47:13;33.53;;;13.05;;
76631;SDS011;65526;48.578;-4.520;2023-06-01T07:49:39;39.53;;;12.88;;
76631;SDS011;65526;48.578;-4.520;2023-06-01T07:52:05;37.83;;;12.45;;
76631;SDS011;65526;48.578;-4.520;2023-06-01T07:54:33;28.42;;;11.82;;
76631;SDS011;65526;48.578;-4.520;2023-06-01T07:57:02;31.98;;;11.90;;
76631;SDS011;65526;48.578;-4.520;2023-06-01T07:59:33;28.05;;;12.30;;
76631;SDS011;65526;48.578;-4.520;2023-06-01T08:01:59;32.13;;;12.35;;
76631;SDS011;65526;48.578;-4.520;2023-06-01T08:04:26;31.17;;;11.65;;
76631;SDS011;65526;48.578;-4.520;2023-06-01T08:06:53;27.52;;;11.85;;
76631;SDS011;65526;48.578;-4.520;2023-06-01T08:09:19;25.83;;;10.80;;
76631;SDS011;65526;48.578;-4.520;2023-06-01T08:11:49;34.75;;;12.27;;
76631;SDS011;65526;48.578;-4.520;2023-06-01T08:14:16;37.30;;;11.95;;
76631;SDS011;65526;48.578;-4.520;2023-06-01T08:16:44;34.75;;;12.13;;
76631;SDS011;65526;48.578;-4.520;2023-06-01T08:19:11;34.25;;;12.65;;
76631;SDS011;65526;48.578;-4.520;2023-06-01T08:21:37;36.00;;;12.10;;
76631;SDS011;65526;48.578;-4.520;2023-06-01T08:24:04;34.85;;;11.73;;
76631;SDS011;65526;48.578;-4.520;2023-06-01T08:26:30;29.70;;;11.32;;
76631;SDS011;65526;48.578;-4.520;2023-06-01T08:28:56;42.35;;;12.73;;
76631;SDS011;65526;48.578;-4.520;2023-06-01T08:31:23;36.13;;;12.27;;
76631;SDS011;65526;48.578;-4.520;2023-06-01T08:33:51;31.23;;;11.55;;
76631;SDS011;65526;48.578;-4.520;2023-06-01T08:36:18;37.40;;;11.38;;
76631;SDS011;65526;48.578;-4.520;2023-06-01T08:38:45;36.65;;;11.93;;
76631;SDS011;65526;48.578;-4.520;2023-06-01T08:41:17;33.13;;;10.82;;
76631;SDS011;65526;48.578;-4.520;2023-06-01T08:43:54;31.50;;;11.40;;
76631;SDS011;65526;48.578;-4.520;2023-06-01T08:46:30;33.47;;;11.32;;
76631;SDS011;65526;48.578;-4.520;2023-06-01T08:48:58;32.15;;;11.20;;
76631;SDS011;65526;48.578;-4.520;2023-06-01T08:51:25;34.83;;;11.32;;
76631;SDS011;65526;48.578;-4.520;2023-06-01T08:53:53;29.23;;;10.73;;
76631;SDS011;65526;48.578;-4.520;2023-06-01T08:56:23;29.50;;;10.82;;
76631;SDS011;65526;48.578;-4.520;2023-06-01T08:58:49;35.83;;;11.52;;
76631;SDS011;65526;48.578;-4.520;2023-06-01T09:01:17;35.17;;;12.13;;
76631;SDS011;65526;48.578;-4.520;2023-06-01T09:03:47;39.00;;;11.93;;
76631;SDS011;65526;48.578;-4.520;2023-06-01T09:06:14;37.35;;;10.93;;
76631;SDS011;65526;48.578;-4.520;2023-06-01T09:08:41;30.33;;;10.60;;
76631;SDS011;65526;48.578;-4.520;2023-06-01T09:11:08;28.98;;;11.20;;
76631;SDS011;65526;48.578;-4.520;2023-06-01T09:13:35;24.95;;;10.40;;
76631;SDS011;65526;48.578;-4.520;2023-06-01T09:16:03;38.67;;;10.02;;
76631;SDS011;65526;48.578;-4.520;2023-06-01T09:18:30;34.95;;;10.85;;
76631;SDS011;65526;48.578;-4.520;2023-06-01T09:21:12;30.67;;;10.40;;
76631;SDS011;65526;48.578;-4.520;2023-06-01T09:23:41;34.90;;;11.93;;
76631;SDS011;65526;48.578;-4.520;2023-06-01T09:26:08;32.63;;;11.48;;
76631;SDS011;65526;48.578;-4.520;2023-06-01T09:34:11;32.25;;;11.20;;
76631;SDS011;65526;48.578;-4.520;2023-06-01T09:36:41;34.75;;;12.15;;
76631;SDS011;65526;48.578;-4.520;2023-06-01T09:39:15;35.15;;;11.52;;
76631;SDS011;65526;48.578;-4.520;2023-06-01T09:41:46;32.17;;;11.02;;
76631;SDS011;65526;48.578;-4.520;2023-06-01T09:44:23;33.17;;;11.30;;
76631;SDS011;65526;48.578;-4.520;2023-06-01T09:47:00;26.55;;;10.63;;
76631;SDS011;65526;48.578;-4.520;2023-06-01T09:49:35;26.75;;;10.23;;
76631;SDS011;65526;48.578;-4.520;2023-06-01T09:54:32;29.73;;;11.23;;
76631;SDS011;65526;48.578;-4.520;2023-06-01T09:57:10;33.95;;;10.52;;
76631;SDS011;65526;48.578;-4.520;2023-06-01T09:59:41;38.17;;;10.18;;
76631;SDS011;65526;48.578;-4.520;2023-06-01T10:02:13;30.75;;;11.23;;
76631;SDS011;65526;48.578;-4.520;2023-06-01T10:04:42;32.60;;;10.70;;
76631;SDS011;65526;48.578;-4.520;2023-06-01T10:07:14;28.48;;;11.57;;
76631;SDS011;65526;48.578;-4.520;2023-06-01T10:09:42;34.10;;;9.57;;
76631;SDS011;65526;48.578;-4.520;2023-06-01T10:12:10;27.80;;;10.35;;
76631;SDS011;65526;48.578;-4.520;2023-06-01T10:14:37;32.25;;;10.30;;
76631;SDS011;65526;48.578;-4.520;2023-06-01T10:17:07;25.50;;;9.55;;
76631;SDS011;65526;48.578;-4.520;2023-06-01T10:19:38;35.35;;;10.32;;
76631;SDS011;65526;48.578;-4.520;2023-06-01T10:22:04;33.58;;;11.38;;
76631;SDS011;65526;48.578;-4.520;2023-06-01T10:24:32;24.02;;;9.23;;
76631;SDS011;65526;48.578;-4.520;2023-06-01T10:27:03;29.40;;;8.85;;
76631;SDS011;65526;48.578;-4.520;2023-06-01T10:29:36;29.20;;;10.05;;
76631;SDS011;65526;48.578;-4.520;2023-06-01T10:32:03;33.25;;;11.43;;
76631;SDS011;65526;48.578;-4.520;2023-06-01T10:34:40;25.17;;;10.02;;
76631;SDS011;65526;48.578;-4.520;2023-06-01T10:39:34;27.48;;;9.82;;
76631;SDS011;65526;48.578;-4.520;2023-06-01T10:52:24;30.27;;;10.13;;
76631;SDS011;65526;48.578;-4.520;2023-06-01T10:54:56;29.13;;;9.80;;
76631;SDS011;65526;48.578;-4.520;2023-06-01T10:57:43;27.25;;;9.85;;
76631;SDS011;65526;48.578;-4.520;2023-06-01T11:00:11;31.35;;;9.18;;
76631;SDS011;65526;48.578;-4.520;2023-06-01T11:02:48;27.58;;;9.18;;
76631;SDS011;65526;48.578;-4.520;2023-06-01T11:13:25;31.13;;;9.52;;
76631;SDS011;65526;48.578;-4.520;2023-06-01T11:21:34;33.88;;;8.98;;
76631;SDS011;65526;48.578;-4.520;2023-06-01T11:24:15;25.77;;;9.07;;
76631;SDS011;65526;48.578;-4.520;2023-06-01T11:29:17;36.03;;;9.88;;
76631;SDS011;65526;48.578;-4.520;2023-06-01T11:31:46;36.53;;;9.90;;
76631;SDS011;65526;48.578;-4.520;2023-06-01T11:34:15;27.35;;;8.85;;
76631;SDS011;65526;48.578;-4.520;2023-06-01T11:36:45;25.98;;;8.82;;
76631;SDS011;65526;48.578;-4.520;2023-06-01T11:39:17;26.40;;;9.20;;
76631;SDS011;65526;48.578;-4.520;2023-06-01T11:42:08;26.80;;;9.73;;
76631;SDS011;65526;48.578;-4.520;2023-06-01T11:44:36;29.17;;;8.88;;
76631;SDS011;65526;48.578;-4.520;2023-06-01T11:47:03;24.92;;;8.00;;
76631;SDS011;65526;48.578;-4.520;2023-06-01T11:49:46;22.80;;;8.13;;
76631;SDS011;65526;48.578;-4.520;2023-06-01T11:52:15;27.85;;;9.57;;
76631;SDS011;65526;48.578;-4.520;2023-06-01T11:54:42;24.05;;;8.10;;
76631;SDS011;65526;48.578;-4.520;2023-06-01T11:57:09;23.52;;;8.88;;
76631;SDS011;65526;48.578;-4.520;2023-06-01T11:59:46;22.83;;;8.52;;
76631;SDS011;65526;48.578;-4.520;2023-06-01T12:02:23;27.00;;;9.05;;
76631;SDS011;65526;48.578;-4.520;2023-06-01T12:04:54;22.67;;;8.02;;
76631;SDS011;65526;48.578;-4.520;2023-06-01T12:07:32;28.80;;;8.70;;
76631;SDS011;65526;48.578;-4.520;2023-06-01T12:10:17;27.70;;;8.50;;
76631;SDS011;65526;48.578;-4.520;2023-06-01T12:12:45;27.17;;;8.02;;
76631;SDS011;65526;48.578;-4.520;2023-06-01T12:15:16;22.80;;;8.15;;
76631;SDS011;65526;48.578;-4.520;2023-06-01T12:17:48;25.35;;;7.90;;
76631;SDS011;65526;48.578;-4.520;2023-06-01T12:23:14;21.98;;;8.02;;
76631;SDS011;65526;48.578;-4.520;2023-06-01T12:25:52;24.98;;;8.00;;
76631;SDS011;65526;48.578;-4.520;2023-06-01T12:28:21;24.42;;;8.45;;
76631;SDS011;65526;48.578;-4.520;2023-06-01T12:30:57;21.77;;;7.93;;
76631;SDS011;65526;48.578;-4.520;2023-06-01T12:33:39;21.70;;;7.32;;
76631;SDS011;65526;48.578;-4.520;2023-06-01T12:36:06;23.77;;;8.05;;
76631;SDS011;65526;48.578;-4.520;2023-06-01T12:38:37;29.70;;;8.40;;
76631;SDS011;65526;48.578;-4.520;2023-06-01T12:41:16;20.85;;;8.38;;
76631;SDS011;65526;48.578;-4.520;2023-06-01T12:43:44;25.30;;;8.10;;
76631;SDS011;65526;48.578;-4.520;2023-06-01T12:46:27;22.65;;;8.45;;
76631;SDS011;65526;48.578;-4.520;2023-06-01T12:51:57;23.45;;;7.88;;
76631;SDS011;65526;48.578;-4.520;2023-06-01T12:54:24;21.13;;;8.52;;
76631;SDS011;65526;48.578;-4.520;2023-06-01T12:56:50;23.67;;;8.02;;
76631;SDS011;65526;48.578;-4.520;2023-06-01T12:59:17;25.20;;;7.88;;
76631;SDS011;65526;48.578;-4.520;2023-06-01T13:01:43;29.33;;;9.48;;
76631;SDS011;65526;48.578;-4.520;2023-06-01T13:04:10;33.28;;;9.52;;
76631;SDS011;65526;48.578;-4.520;2023-06-01T13:06:36;28.27;;;8.63;;
76631;SDS011;65526;48.578;-4.520;2023-06-01T13:09:04;28.80;;;8.38;;
76631;SDS011;65526;48.578;-4.520;2023-06-01T13:11:30;22.52;;;7.43;;
76631;SDS011;65526;48.578;-4.520;2023-06-01T13:13:56;23.38;;;6.93;;
76631;SDS011;65526;48.578;-4.520;2023-06-01T13:16:23;23.27;;;8.18;;
76631;SDS011;65526;48.578;-4.520;2023-06-01T13:18:49;23.23;;;7.50;;
76631;SDS011;65526;48.578;-4.520;2023-06-01T13:21:17;20.77;;;7.47;;
76631;SDS011;65526;48.578;-4.520;2023-06-01T13:23:44;21.38;;;8.40;;
76631;SDS011;65526;48.578;-4.520;2023-06-01T13:26:10;25.83;;;8.65;;
76631;SDS011;65526;48.578;-4.520;2023-06-01T13:28:40;29.05;;;7.75;;
76631;SDS011;65526;48.578;-4.520;2023-06-01T13:31:06;23.38;;;7.65;;
76631;SDS011;65526;48.578;-4.520;2023-06-01T13:33:33;26.40;;;7.85;;
76631;SDS011;65526;48.578;-4.520;2023-06-01T13:36:00;32.10;;;8.32;;
76631;SDS011;65526;48.578;-4.520;2023-06-01T13:38:27;26.80;;;8.15;;
76631;SDS011;65526;48.578;-4.520;2023-06-01T13:40:56;30.52;;;7.95;;
76631;SDS011;65526;48.578;-4.520;2023-06-01T13:43:22;25.95;;;7.38;;
76631;SDS011;65526;48.578;-4.520;2023-06-01T13:45:49;29.45;;;7.95;;
76631;SDS011;65526;48.578;-4.520;2023-06-01T13:48:16;28.75;;;7.80;;
76631;SDS011;65526;48.578;-4.520;2023-06-01T13:50:42;20.02;;;6.95;;
76631;SDS011;65526;48.578;-4.520;2023-06-01T13:53:08;24.13;;;7.63;;
76631;SDS011;65526;48.578;-4.520;2023-06-01T13:55:35;28.67;;;7.50;;
76631;SDS011;65526;48.578;-4.520;2023-06-01T13:58:02;23.15;;;7.07;;
76631;SDS011;65526;48.578;-4.520;2023-06-01T14:00:29;19.65;;;7.47;;
76631;SDS011;65526;48.578;-4.520;2023-06-01T14:02:55;22.08;;;7.15;;
76631;SDS011;65526;48.578;-4.520;2023-06-01T14:05:22;26.55;;;7.18;;
76631;SDS011;65526;48.578;-4.520;2023-06-01T14:07:48;22.25;;;7.40;;
76631;SDS011;65526;48.578;-4.520;2023-06-01T14:10:14;28.83;;;8.10;;
76631;SDS011;65526;48.578;-4.520;2023-06-01T14:12:42;23.92;;;8.35;;
76631;SDS011;65526;48.578;-4.520;2023-06-01T14:15:09;25.35;;;7.65;;
76631;SDS011;65526;48.578;-4.520;2023-06-01T14:17:35;26.52;;;8.00;;
76631;SDS011;65526;48.578;-4.520;2023-06-01T14:20:02;20.70;;;7.85;;
76631;SDS011;65526;48.578;-4.520;2023-06-01T14:22:29;26.55;;;8.25;;
76631;SDS011;65526;48.578;-4.520;2023-06-01T14:24:55;22.15;;;7.60;;
76631;SDS011;65526;48.578;-4.520;2023-06-01T14:27:22;21.90;;;6.90;;
76631;SDS011;65526;48.578;-4.520;2023-06-01T14:29:48;24.83;;;7.18;;
76631;SDS011;65526;48.578;-4.520;2023-06-01T14:32:14;23.58;;;7.68;;
76631;SDS011;65526;48.578;-4.520;2023-06-01T14:34:41;25.27;;;7.30;;
76631;SDS011;65526;48.578;-4.520;2023-06-01T14:37:07;21.10;;;7.38;;
76631;SDS011;65526;48.578;-4.520;2023-06-01T14:39:36;27.48;;;7.20;;
76631;SDS011;65526;48.578;-4.520;2023-06-01T14:42:04;21.88;;;7.05;;
76631;SDS011;65526;48.578;-4.520;2023-06-01T14:44:31;21.38;;;7.68;;
76631;SDS011;65526;48.578;-4.520;2023-06-01T14:46:57;27.88;;;7.82;;
76631;SDS011;65526;48.578;-4.520;2023-06-01T14:49:23;21.05;;;6.80;;
76631;SDS011;65526;48.578;-4.520;2023-06-01T14:51:50;29.10;;;7.63;;
76631;SDS011;65526;48.578;-4.520;2023-06-01T14:54:16;22.98;;;7.55;;
76631;SDS011;65526;48.578;-4.520;2023-06-01T14:56:42;29.90;;;7.50;;
76631;SDS011;65526;48.578;-4.520;2023-06-01T14:59:09;28.73;;;8.23;;
76631;SDS011;65526;48.578;-4.520;2023-06-01T15:01:35;22.65;;;7.95;;
76631;SDS011;65526;48.578;-4.520;2023-06-01T15:04:01;19.17;;;7.00;;
76631;SDS011;65526;48.578;-4.520;2023-06-01T15:06:28;22.98;;;7.05;;
76631;SDS011;65526;48.578;-4.520;2023-06-01T15:08:54;22.00;;;7.75;;
76631;SDS011;65526;48.578;-4.520;2023-06-01T15:11:21;23.95;;;7.88;;
76631;SDS011;65526;48.578;-4.520;2023-06-01T15:13:48;25.80;;;9.07;;
76631;SDS011;65526;48.578;-4.520;2023-06-01T15:16:15;18.02;;;7.68;;
76631;SDS011;65526;48.578;-4.520;2023-06-01T15:18:41;27.88;;;8.40;;
76631;SDS011;65526;48.578;-4.520;2023-06-01T15:21:08;25.10;;;7.88;;
76631;SDS011;65526;48.578;-4.520;2023-06-01T15:23:34;21.33;;;7.88;;
76631;SDS011;65526;48.578;-4.520;2023-06-01T15:26:00;22.98;;;7.40;;